Time;durP1;ratioP1;P1;durP2;ratioP2;P2;SDS_P1;SDS_P2;PMS_P1;PMS_P2;Temp;Humidity;BMP_temperature;BMP_pressure;BME280_temperature;BME280_humidity;BME280_pressure;Samples;Min_cycle;Max_cycle;Signal;HPM_P1;HPM_P2
2022/10/28 00:01:49;;;;;;;18.40;5.20;;;17.00;99.90;;;;;;5101320;28;20070;-62
2022/10/28 00:04:18;;;;;;;14.43;5.72;;;17.00;99.90;;;;;;5099237;28;20040;-62
2022/10/28 00:06:46;;;;;;;15.50;5.13;;;17.00;99.90;;;;;;5091039;28;20161;-65
2022/10/28 00:09:13;;;;;;;14.57;4.40;;;17.00;99.90;;;;;;5110360;28;20142;-62
2022/10/28 00:11:41;;;;;;;17.05;4.93;;;16.90;99.90;;;;;;5093748;28;20051;-62
2022/10/28 00:14:10;;;;;;;11.05;4.72;;;16.90;99.90;;;;;;5093860;28;20409;-63
2022/10/28 00:16:37;;;;;;;17.80;5.55;;;16.90;99.90;;;;;;5113011;28;20134;-63
2022/10/28 00:19:05;;;;;;;18.33;5.78;;;16.80;99.90;;;;;;5094994;28;20502;-63
2022/10/28 00:21:33;;;;;;;16.45;5.05;;;16.80;99.90;;;;;;5093804;28;20050;-63
2022/10/28 00:24:00;;;;;;;11.25;5.78;;;16.80;99.90;;;;;;5093940;28;20047;-63
2022/10/28 00:26:28;;;;;;;11.55;4.78;;;16.70;99.90;;;;;;5094150;28;20222;-63
2022/10/28 00:28:57;;;;;;;13.30;5.13;;;16.60;99.90;;;;;;5094654;28;20075;-63
2022/10/28 00:31:26;;;;;;;15.20;5.25;;;16.60;99.90;;;;;;5094083;28;20134;-63
2022/10/28 00:33:52;;;;;;;21.33;5.43;;;16.60;99.90;;;;;;5112536;28;20050;-63
2022/10/28 00:36:30;;;;;;;18.98;5.25;;;16.50;99.90;;;;;;5094424;28;20051;-64
2022/10/28 00:38:57;;;;;;;16.35;4.95;;;16.40;99.90;;;;;;5092797;28;20474;-63
2022/10/28 00:41:27;;;;;;;18.63;5.70;;;16.50;99.90;;;;;;5092630;28;20052;-63
2022/10/28 00:43:55;;;;;;;23.10;5.70;;;16.50;99.90;;;;;;5093115;28;20127;-63
2022/10/28 00:46:30;;;;;;;11.43;4.85;;;16.40;99.90;;;;;;5111189;28;20047;-63
2022/10/28 00:49:04;;;;;;;20.45;6.00;;;16.40;99.90;;;;;;5093259;28;20051;-63
2022/10/28 00:51:32;;;;;;;16.02;6.28;;;16.40;99.90;;;;;;5095495;28;20050;-63
2022/10/28 00:53:58;;;;;;;18.00;7.20;;;16.40;99.90;;;;;;5080397;28;20123;-63
2022/10/28 00:56:26;;;;;;;17.88;5.72;;;16.30;99.90;;;;;;5065085;28;20554;-63
2022/10/28 00:58:55;;;;;;;16.67;6.53;;;16.30;99.90;;;;;;5078581;28;20048;-63
2022/10/28 01:01:21;;;;;;;18.63;6.03;;;16.30;99.90;;;;;;5065254;28;20083;-63
2022/10/28 01:03:48;;;;;;;10.85;5.47;;;16.30;99.90;;;;;;5099004;28;20498;-63
2022/10/28 01:06:15;;;;;;;24.13;6.35;;;16.30;99.90;;;;;;5116159;28;20086;-63
2022/10/28 01:08:42;;;;;;;11.90;5.90;;;16.30;99.90;;;;;;5099018;28;20066;-63
2022/10/28 01:11:38;;;;;;;24.15;5.63;;;16.30;99.90;;;;;;5098518;28;20513;-63
2022/10/28 01:14:39;;;;;;;14.05;5.43;;;16.30;99.90;;;;;;5111783;28;20131;-64
2022/10/28 01:17:09;;;;;;;17.75;7.03;;;16.30;99.90;;;;;;5116238;28;20053;-64
2022/10/28 01:20:01;;;;;;;14.27;5.50;;;16.30;99.90;;;;;;5098028;28;20076;-63
2022/10/28 01:22:45;;;;;;;19.10;5.70;;;16.30;99.90;;;;;;5098393;28;20058;-64
2022/10/28 01:25:27;;;;;;;17.80;6.78;;;16.30;99.90;;;;;;5098256;28;20051;-64
2022/10/28 01:28:17;;;;;;;15.13;7.18;;;16.20;99.90;;;;;;5116182;28;20479;-63
2022/10/28 01:31:21;;;;;;;17.90;5.75;;;16.30;99.90;;;;;;5082873;28;20048;-63
2022/10/28 01:34:14;;;;;;;19.48;6.97;;;16.20;99.90;;;;;;5097592;28;20039;-63
2022/10/28 01:36:57;;;;;;;15.10;5.82;;;16.20;99.90;;;;;;5100193;28;20081;-63
2022/10/28 01:39:30;;;;;;;19.40;6.93;;;16.20;99.90;;;;;;5097879;28;20054;-63
2022/10/28 01:42:12;;;;;;;16.88;5.47;;;16.20;99.90;;;;;;5116339;28;20059;-63
2022/10/28 01:44:51;;;;;;;13.82;5.82;;;16.20;99.90;;;;;;5081881;28;20079;-63
2022/10/28 01:47:37;;;;;;;23.45;6.03;;;16.20;99.90;;;;;;5064927;28;20100;-63
2022/10/28 01:50:12;;;;;;;22.40;6.57;;;16.20;99.90;;;;;;5080872;28;20051;-63
2022/10/28 01:52:39;;;;;;;24.30;7.88;;;16.20;99.90;;;;;;5081229;28;20101;-63
2022/10/28 01:55:15;;;;;;;19.27;5.95;;;16.20;99.90;;;;;;5097694;28;20048;-63
2022/10/28 01:57:41;;;;;;;14.57;7.05;;;16.20;99.90;;;;;;5097629;28;20605;-63
2022/10/28 02:00:09;;;;;;;19.48;7.10;;;16.20;99.90;;;;;;5080436;28;20079;-63
2022/10/28 02:02:36;;;;;;;18.27;7.00;;;16.20;99.90;;;;;;5080960;28;20065;-63
2022/10/28 02:05:34;;;;;;;17.08;7.35;;;16.30;99.90;;;;;;5097444;28;20054;-63
2022/10/28 02:08:23;;;;;;;14.27;6.55;;;16.30;99.90;;;;;;5095975;28;20516;-63
2022/10/28 02:10:59;;;;;;;24.45;8.40;;;16.30;99.90;;;;;;5051748;28;20048;-63
2022/10/28 02:13:36;;;;;;;21.10;7.10;;;16.30;99.90;;;;;;5096490;28;20050;-63
2022/10/28 02:16:10;;;;;;;19.88;7.00;;;16.30;99.90;;;;;;5097989;28;20769;-63
2022/10/28 02:18:59;;;;;;;15.90;5.97;;;16.30;99.90;;;;;;5080707;28;20047;-63
2022/10/28 02:21:35;;;;;;;17.48;6.05;;;16.30;99.90;;;;;;5100096;28;20044;-63
2022/10/28 02:24:18;;;;;;;34.58;6.75;;;16.20;99.90;;;;;;5097583;28;20218;-63
2022/10/28 02:27:07;;;;;;;13.82;6.05;;;16.20;99.90;;;;;;5115203;28;20055;-63
2022/10/28 02:29:45;;;;;;;16.25;5.43;;;16.20;99.90;;;;;;5097385;28;20063;-63
2022/10/28 02:32:15;;;;;;;21.77;7.05;;;16.10;99.90;;;;;;5097379;28;20062;-63
2022/10/28 02:34:43;;;;;;;15.40;6.68;;;16.10;99.90;;;;;;5080106;28;20045;-63
2022/10/28 02:37:12;;;;;;;17.25;7.38;;;16.10;99.90;;;;;;5080433;28;20050;-63
2022/10/28 02:39:40;;;;;;;19.63;7.57;;;16.10;99.90;;;;;;5096823;28;20452;-63
2022/10/28 02:42:08;;;;;;;18.85;7.15;;;16.10;99.90;;;;;;5080193;28;20083;-63
2022/10/28 02:44:38;;;;;;;17.08;8.00;;;16.10;99.90;;;;;;5096585;28;20409;-63
2022/10/28 02:47:08;;;;;;;14.05;6.40;;;16.00;99.90;;;;;;5080127;28;20047;-63
2022/10/28 02:49:35;;;;;;;14.35;6.28;;;16.00;99.90;;;;;;5063559;28;20054;-63
2022/10/28 02:52:03;;;;;;;19.30;6.75;;;15.90;99.90;;;;;;5080045;28;20058;-62
2022/10/28 02:54:49;;;;;;;17.77;6.43;;;15.90;99.90;;;;;;5096733;28;20065;-63
2022/10/28 02:57:18;;;;;;;17.95;7.00;;;15.90;99.90;;;;;;5079578;28;20043;-64
2022/10/28 02:59:56;;;;;;;14.40;6.45;;;15.90;99.90;;;;;;5096342;28;20053;-63
2022/10/28 03:02:23;;;;;;;16.83;7.22;;;15.90;99.90;;;;;;5089838;28;20040;-63
2022/10/28 03:04:50;;;;;;;15.15;7.03;;;15.90;99.90;;;;;;5076148;28;20048;-63
2022/10/28 03:07:16;;;;;;;24.60;8.10;;;15.90;99.90;;;;;;5059594;28;20040;-63
2022/10/28 03:09:43;;;;;;;17.88;7.85;;;15.90;99.90;;;;;;5075874;28;20040;-63
2022/10/28 03:12:10;;;;;;;18.58;7.18;;;15.80;99.90;;;;;;5093825;28;20048;-63
2022/10/28 03:14:37;;;;;;;22.80;7.47;;;15.90;99.90;;;;;;5093991;28;20145;-63
2022/10/28 03:17:03;;;;;;;23.40;7.15;;;15.90;99.90;;;;;;5075971;28;20047;-63
2022/10/28 03:19:30;;;;;;;23.30;7.47;;;15.90;99.90;;;;;;5075699;28;20067;-63
2022/10/28 03:21:57;;;;;;;16.83;6.82;;;15.90;99.90;;;;;;5058993;28;20054;-62
2022/10/28 03:24:24;;;;;;;14.57;6.57;;;15.90;99.90;;;;;;5075113;28;20130;-62
2022/10/28 03:26:50;;;;;;;20.42;7.72;;;15.90;99.90;;;;;;5093486;28;20474;-62
2022/10/28 03:29:17;;;;;;;19.20;8.13;;;15.80;99.90;;;;;;5075754;28;20056;-63
2022/10/28 03:31:44;;;;;;;17.85;6.45;;;15.80;99.90;;;;;;5093469;28;20051;-63
2022/10/28 03:34:10;;;;;;;26.70;6.88;;;15.90;99.90;;;;;;5093106;28;20062;-63
2022/10/28 03:36:37;;;;;;;14.55;7.55;;;15.80;99.90;;;;;;5075342;28;20070;-63
2022/10/28 03:39:04;;;;;;;21.10;6.57;;;15.80;99.90;;;;;;5093436;28;20135;-63
2022/10/28 03:41:31;;;;;;;24.42;6.53;;;15.80;99.90;;;;;;5093304;28;20059;-63
2022/10/28 03:43:57;;;;;;;15.50;6.15;;;15.80;99.90;;;;;;5093381;28;20059;-63
2022/10/28 03:46:24;;;;;;;24.50;7.43;;;15.80;99.90;;;;;;5075659;28;20411;-63
2022/10/28 03:48:51;;;;;;;14.40;6.90;;;15.70;99.90;;;;;;5075486;28;20078;-63
2022/10/28 03:51:18;;;;;;;20.33;6.50;;;15.80;99.90;;;;;;5093200;28;20495;-63
2022/10/28 03:53:45;;;;;;;23.70;7.53;;;15.70;99.90;;;;;;5075154;28;20047;-63
2022/10/28 03:56:12;;;;;;;19.55;7.03;;;15.80;99.90;;;;;;5093019;28;20044;-63
2022/10/28 03:58:39;;;;;;;18.30;7.55;;;15.80;99.90;;;;;;5075404;28;20051;-63
2022/10/28 04:01:07;;;;;;;23.83;7.55;;;15.80;99.90;;;;;;5074788;28;20105;-63
2022/10/28 04:03:34;;;;;;;15.82;6.80;;;15.90;99.90;;;;;;5093525;28;20036;-62
2022/10/28 04:06:00;;;;;;;43.05;8.88;;;15.90;99.90;;;;;;5092636;28;20059;-62
2022/10/28 04:08:27;;;;;;;16.98;5.28;;;16.00;99.90;;;;;;5074684;28;20392;-63
2022/10/28 04:10:54;;;;;;;25.05;6.88;;;16.10;99.90;;;;;;5093080;28;20077;-63
2022/10/28 04:13:20;;;;;;;24.83;6.20;;;16.20;99.90;;;;;;5092873;28;20067;-62
2022/10/28 04:15:47;;;;;;;24.38;7.05;;;16.30;99.90;;;;;;5092718;28;20162;-62
2022/10/28 04:18:14;;;;;;;21.40;5.75;;;16.30;99.90;;;;;;5092913;28;20052;-63
2022/10/28 04:20:40;;;;;;;19.70;6.03;;;16.40;99.90;;;;;;5092346;28;20498;-63
2022/10/28 04:23:08;;;;;;;22.15;7.05;;;16.40;99.90;;;;;;5092239;28;20095;-63
2022/10/28 04:25:34;;;;;;;21.95;5.97;;;16.50;99.90;;;;;;5041387;28;20463;-63
2022/10/28 04:28:03;;;;;;;23.30;6.88;;;16.50;99.90;;;;;;5074778;28;20043;-63
2022/10/28 04:30:30;;;;;;;26.15;7.32;;;16.50;99.90;;;;;;5092189;28;20040;-63
2022/10/28 04:32:57;;;;;;;15.90;5.53;;;16.60;99.90;;;;;;5074374;28;20415;-63
2022/10/28 04:35:24;;;;;;;20.92;5.78;;;16.60;99.90;;;;;;5057354;28;20044;-63
2022/10/28 04:37:51;;;;;;;20.75;6.43;;;16.60;99.90;;;;;;5098307;28;20048;-62
2022/10/28 04:40:18;;;;;;;23.77;6.32;;;16.60;99.90;;;;;;5097076;28;20047;-63
2022/10/28 04:42:44;;;;;;;23.27;7.15;;;16.60;99.90;;;;;;5074779;28;20125;-63
2022/10/28 04:45:12;;;;;;;20.75;6.68;;;16.60;99.90;;;;;;5074454;28;20495;-63
2022/10/28 04:47:38;;;;;;;17.35;7.50;;;16.60;99.90;;;;;;5074269;28;20471;-62
2022/10/28 04:50:05;;;;;;;25.13;6.85;;;16.60;99.90;;;;;;5092221;28;20055;-62
2022/10/28 04:52:32;;;;;;;21.20;7.40;;;16.60;99.90;;;;;;5092484;28;20051;-62
2022/10/28 04:54:59;;;;;;;29.05;7.35;;;16.60;99.90;;;;;;5091988;28;20492;-62
2022/10/28 04:57:26;;;;;;;22.50;6.55;;;16.60;99.90;;;;;;5074226;28;20142;-63
2022/10/28 04:59:52;;;;;;;24.92;7.40;;;16.60;99.90;;;;;;5073999;28;20143;-63
2022/10/28 05:02:22;;;;;;;22.17;7.30;;;16.60;99.90;;;;;;5074269;28;20044;-62
2022/10/28 05:04:48;;;;;;;23.48;7.15;;;16.60;99.90;;;;;;5057412;28;20055;-63
2022/10/28 05:07:15;;;;;;;16.73;7.40;;;16.70;99.90;;;;;;5074133;28;20559;-63
2022/10/28 05:09:46;;;;;;;20.73;6.75;;;16.60;99.90;;;;;;5074953;28;20404;-63
2022/10/28 05:12:13;;;;;;;26.08;8.18;;;16.60;99.90;;;;;;5080388;28;20036;-65
2022/10/28 05:14:40;;;;;;;18.17;7.57;;;16.60;99.90;;;;;;5081914;28;20048;-65
2022/10/28 05:17:08;;;;;;;27.30;7.07;;;16.60;99.90;;;;;;5095024;28;20048;-66
2022/10/28 05:19:35;;;;;;;21.38;8.40;;;16.60;99.90;;;;;;5058097;28;20052;-65
2022/10/28 05:22:02;;;;;;;19.95;6.95;;;16.60;99.90;;;;;;5059188;28;20093;-64
2022/10/28 05:24:29;;;;;;;21.42;7.25;;;16.60;99.90;;;;;;5097618;28;20055;-66
2022/10/28 05:26:57;;;;;;;23.50;7.22;;;16.60;99.90;;;;;;5076388;28;20534;-65
2022/10/28 05:29:24;;;;;;;28.48;7.05;;;16.60;99.90;;;;;;5057083;28;20135;-64
2022/10/28 05:31:56;;;;;;;22.35;6.20;;;16.60;99.90;;;;;;5060389;28;20059;-64
2022/10/28 05:34:23;;;;;;;25.52;7.13;;;16.60;99.90;;;;;;5094111;28;20044;-66
2022/10/28 05:36:49;;;;;;;23.08;6.75;;;16.70;99.90;;;;;;5076889;28;20472;-64
2022/10/28 05:39:17;;;;;;;17.00;5.72;;;16.70;99.90;;;;;;5092549;28;20047;-66
2022/10/28 05:41:43;;;;;;;17.63;6.80;;;16.70;99.90;;;;;;5074884;28;20055;-64
2022/10/28 05:44:10;;;;;;;19.58;6.13;;;16.70;99.90;;;;;;5042391;28;20127;-64
2022/10/28 05:46:37;;;;;;;25.75;5.75;;;16.70;99.90;;;;;;5094170;28;20052;-64
2022/10/28 05:49:04;;;;;;;17.02;5.50;;;16.70;99.90;;;;;;5063538;28;20040;-63
2022/10/28 05:51:31;;;;;;;17.25;5.85;;;16.80;99.90;;;;;;5084466;28;20526;-65
2022/10/28 05:53:58;;;;;;;24.40;7.07;;;16.80;99.90;;;;;;5085518;28;20044;-64
2022/10/28 05:56:24;;;;;;;17.67;5.57;;;16.80;99.90;;;;;;5070811;28;20128;-66
2022/10/28 05:58:51;;;;;;;13.82;5.40;;;16.80;99.90;;;;;;5061446;28;20102;-65
2022/10/28 06:01:18;;;;;;;25.75;5.57;;;16.70;99.90;;;;;;5097589;28;20461;-66
2022/10/28 06:03:45;;;;;;;23.95;6.03;;;16.80;99.90;;;;;;5100029;28;20052;-65
2022/10/28 06:06:12;;;;;;;23.58;6.78;;;16.70;99.90;;;;;;5115766;28;20044;-68
2022/10/28 06:08:38;;;;;;;27.48;6.28;;;16.70;99.90;;;;;;5096383;28;20052;-66
2022/10/28 06:11:05;;;;;;;21.02;5.30;;;16.70;99.90;;;;;;5115550;28;20108;-67
2022/10/28 06:13:32;;;;;;;17.75;5.57;;;16.70;99.90;;;;;;5073163;28;20083;-69
2022/10/28 06:15:59;;;;;;;18.35;5.80;;;16.70;99.90;;;;;;5111800;28;20060;-66
2022/10/28 06:18:25;;;;;;;17.90;5.75;;;16.70;99.90;;;;;;5094503;28;20039;-68
2022/10/28 06:20:55;;;;;;;27.13;4.95;;;16.60;99.90;;;;;;5111216;28;20107;-67
2022/10/28 06:23:22;;;;;;;19.17;5.47;;;16.60;99.90;;;;;;5066839;28;20083;-68
2022/10/28 06:25:49;;;;;;;19.40;5.95;;;16.60;99.90;;;;;;5108457;28;20036;-69
2022/10/28 06:28:16;;;;;;;17.08;6.20;;;16.60;99.90;;;;;;5114380;28;20032;-68
2022/10/28 06:30:43;;;;;;;14.15;6.15;;;16.60;99.90;;;;;;5082885;28;20043;-67
2022/10/28 06:33:09;;;;;;;20.10;5.57;;;16.60;99.90;;;;;;5113686;28;20282;-71
2022/10/28 06:35:36;;;;;;;22.92;5.63;;;16.60;99.90;;;;;;5094395;28;20038;-69
2022/10/28 06:38:03;;;;;;;19.90;5.32;;;16.60;99.90;;;;;;5093814;28;20077;-70
2022/10/28 06:40:35;;;;;;;19.63;5.68;;;16.60;99.90;;;;;;4750491;28;10000054;-72
2022/10/28 06:43:04;;;;;;;20.40;5.30;;;16.60;99.90;;;;;;5092774;28;20032;-68
2022/10/28 06:45:32;;;;;;;18.23;4.97;;;16.60;99.90;;;;;;5098075;28;20099;-68
2022/10/28 06:48:00;;;;;;;18.08;5.22;;;16.60;99.90;;;;;;5136686;28;20070;-69
2022/10/28 06:50:27;;;;;;;19.42;5.85;;;16.60;99.90;;;;;;5136863;28;20067;-69
2022/10/28 06:52:55;;;;;;;21.92;5.13;;;16.70;99.90;;;;;;5102269;28;20062;-69
2022/10/28 06:55:26;;;;;;;19.70;5.82;;;16.70;99.90;;;;;;5102289;28;20094;-68
2022/10/28 06:57:52;;;;;;;23.75;5.97;;;16.70;99.90;;;;;;5114009;28;20044;-68
2022/10/28 07:00:20;;;;;;;15.50;5.18;;;16.80;99.90;;;;;;5106472;28;20023;-68
2022/10/28 07:02:52;;;;;;;20.35;6.43;;;16.80;99.90;;;;;;5118518;28;20099;-68
2022/10/28 07:05:20;;;;;;;18.13;4.45;;;16.80;99.90;;;;;;5118856;28;20046;-70
2022/10/28 07:07:47;;;;;;;18.17;4.63;;;16.80;99.90;;;;;;5117657;28;20027;-69
2022/10/28 07:10:14;;;;;;;24.95;6.15;;;16.80;99.90;;;;;;5116011;28;20048;-69
2022/10/28 07:12:41;;;;;;;18.23;5.10;;;16.90;99.90;;;;;;5134409;28;20103;-70
2022/10/28 07:15:09;;;;;;;22.65;7.25;;;16.80;99.90;;;;;;5135619;28;20554;-66
2022/10/28 07:17:35;;;;;;;20.15;5.20;;;16.80;99.90;;;;;;5122256;28;20471;-69
2022/10/28 07:20:02;;;;;;;17.58;5.13;;;16.90;99.90;;;;;;5114737;28;20058;-71
2022/10/28 07:22:29;;;;;;;15.85;5.38;;;16.80;99.90;;;;;;5132870;28;20063;-68
2022/10/28 07:24:56;;;;;;;24.08;5.55;;;16.80;99.90;;;;;;5117736;28;20031;-68
2022/10/28 07:27:23;;;;;;;23.45;6.15;;;16.80;99.90;;;;;;5134506;28;20040;-68
2022/10/28 07:29:49;;;;;;;19.55;5.38;;;16.80;99.90;;;;;;5117306;28;20100;-67
2022/10/28 07:32:16;;;;;;;29.83;6.47;;;16.80;99.90;;;;;;5100754;28;20032;-68
2022/10/28 07:34:43;;;;;;;19.90;5.88;;;16.80;99.90;;;;;;5118447;28;20058;-69
2022/10/28 07:37:11;;;;;;;23.98;5.35;;;16.90;99.90;;;;;;5118033;28;20035;-69
2022/10/28 07:39:38;;;;;;;15.88;6.40;;;16.90;99.90;;;;;;5084093;28;20042;-69
2022/10/28 07:42:05;;;;;;;22.27;5.30;;;16.90;99.90;;;;;;5084494;28;20044;-68
2022/10/28 07:44:32;;;;;;;20.55;6.85;;;16.90;99.90;;;;;;5099149;28;20067;-68
2022/10/28 07:46:59;;;;;;;22.15;5.47;;;17.00;99.90;;;;;;5124007;28;20066;-68
2022/10/28 07:49:25;;;;;;;20.63;5.40;;;17.00;99.90;;;;;;5129384;28;20027;-68
2022/10/28 07:51:52;;;;;;;18.33;5.22;;;17.00;99.90;;;;;;5100911;28;20036;-67
2022/10/28 07:54:19;;;;;;;22.70;6.60;;;17.00;99.90;;;;;;5117737;28;20087;-67
2022/10/28 07:56:45;;;;;;;26.83;6.65;;;17.10;99.90;;;;;;5095118;28;20032;-68
2022/10/28 07:59:12;;;;;;;20.85;5.93;;;17.10;99.90;;;;;;5138195;28;20099;-68
2022/10/28 08:01:39;;;;;;;14.98;5.03;;;17.10;99.90;;;;;;5132003;28;20044;-68
2022/10/28 08:04:06;;;;;;;22.98;5.50;;;17.20;99.90;;;;;;5117064;28;20028;-68
2022/10/28 08:06:35;;;;;;;21.25;4.88;;;17.20;99.90;;;;;;4863184;28;10001286;-68
2022/10/28 08:09:02;;;;;;;18.60;4.45;;;17.20;99.90;;;;;;5106545;28;20298;-67
2022/10/28 08:11:29;;;;;;;15.50;5.00;;;17.20;99.90;;;;;;5083994;28;20091;-69
2022/10/28 08:13:56;;;;;;;17.70;5.18;;;17.30;99.90;;;;;;5081599;28;20048;-67
2022/10/28 08:16:23;;;;;;;17.88;4.38;;;17.30;99.90;;;;;;5115190;28;20032;-69
2022/10/28 08:18:51;;;;;;;27.08;5.85;;;17.40;99.90;;;;;;5097552;28;20044;-68
2022/10/28 08:21:18;;;;;;;25.13;5.82;;;17.40;99.90;;;;;;5098579;28;20056;-68
2022/10/28 08:23:45;;;;;;;21.05;5.30;;;17.50;99.90;;;;;;5098035;28;20028;-67
2022/10/28 08:26:13;;;;;;;20.13;4.43;;;17.60;99.90;;;;;;5081404;28;20043;-66
2022/10/28 08:28:40;;;;;;;15.65;4.25;;;17.60;99.90;;;;;;5115418;28;20082;-67
2022/10/28 08:31:11;;;;;;;23.77;5.05;;;17.60;99.90;;;;;;5114685;28;20088;-68
2022/10/28 08:33:45;;;;;;;20.45;4.95;;;17.60;99.90;;;;;;5097252;28;20111;-67
2022/10/28 08:36:14;;;;;;;21.52;4.63;;;17.70;99.90;;;;;;5097547;28;20059;-67
2022/10/28 08:38:44;;;;;;;17.23;4.65;;;17.70;99.90;;;;;;5097515;28;20051;-68
2022/10/28 08:41:26;;;;;;;18.20;4.38;;;17.80;99.90;;;;;;5114709;28;20032;-67
2022/10/28 08:44:12;;;;;;;19.77;4.20;;;17.80;99.90;;;;;;5098243;28;20074;-67
2022/10/28 08:46:48;;;;;;;24.25;4.60;;;17.80;99.90;;;;;;5115016;28;20055;-67
2022/10/28 08:49:17;;;;;;;19.33;5.18;;;17.80;99.90;;;;;;5081138;28;20043;-68
2022/10/28 08:51:51;;;;;;;18.42;5.80;;;17.90;99.90;;;;;;5097654;28;20043;-67
2022/10/28 08:54:25;;;;;;;20.88;6.35;;;17.90;99.90;;;;;;5097141;28;20051;-67
2022/10/28 08:56:54;;;;;;;;;;;18.00;99.90;;;;;;5097946;28;20079;-68
2022/10/28 08:59:33;;;;;;;24.48;5.68;;;17.90;99.90;;;;;;5081043;28;19941;-68
2022/10/28 09:02:15;;;;;;;23.10;5.75;;;17.90;99.90;;;;;;5084771;28;20027;-68
2022/10/28 09:04:43;;;;;;;24.70;4.90;;;18.00;99.90;;;;;;5085759;28;20024;-67
2022/10/28 09:07:18;;;;;;;21.20;4.78;;;18.00;99.90;;;;;;5100956;28;20038;-68
2022/10/28 09:09:45;;;;;;;16.38;4.82;;;18.00;99.90;;;;;;5100979;28;20035;-68
2022/10/28 09:12:27;;;;;;;22.40;4.97;;;18.00;99.90;;;;;;5117622;28;20054;-68
2022/10/28 09:15:06;;;;;;;32.33;4.78;;;18.00;99.90;;;;;;5115788;28;20042;-67
2022/10/28 09:17:46;;;;;;;16.75;4.88;;;18.10;99.90;;;;;;5135108;28;20069;-67
2022/10/28 09:20:23;;;;;;;17.37;5.30;;;18.10;99.90;;;;;;5138150;28;20047;-67
2022/10/28 09:22:57;;;;;;;14.52;4.03;;;18.20;99.90;;;;;;5125404;27;20046;-67
2022/10/28 09:25:47;;;;;;;26.45;4.43;;;18.20;99.90;;;;;;5125136;27;20135;-69
2022/10/28 09:28:46;;;;;;;12.25;3.47;;;18.30;99.90;;;;;;5141462;27;20050;-67
2022/10/28 09:31:26;;;;;;;16.58;3.28;;;18.30;99.90;;;;;;5142462;27;20059;-67
2022/10/28 09:33:53;;;;;;;15.20;4.18;;;18.30;99.90;;;;;;5126333;27;20023;-67
2022/10/28 09:36:52;;;;;;;17.55;4.13;;;18.30;99.90;;;;;;5140196;27;20095;-67
2022/10/28 09:39:22;;;;;;;17.13;3.38;;;18.40;99.90;;;;;;5116036;27;20083;-67
2022/10/28 09:41:53;;;;;;;17.02;3.72;;;18.50;99.90;;;;;;5125927;27;21136;-67
2022/10/28 09:44:31;;;;;;;18.15;3.78;;;18.50;99.90;;;;;;5124153;27;20095;-67
2022/10/28 09:46:58;;;;;;;16.20;4.35;;;18.40;99.90;;;;;;5129944;28;20042;-67
2022/10/28 09:49:30;;;;;;;19.90;4.07;;;18.50;99.90;;;;;;5120512;28;20059;-67
2022/10/28 09:52:23;;;;;;;19.10;4.05;;;18.50;99.90;;;;;;5103912;28;20074;-67
2022/10/28 09:54:51;;;;;;;13.38;2.88;;;18.50;99.90;;;;;;5121339;28;20153;-67
2022/10/28 09:57:19;;;;;;;13.45;2.42;;;18.50;99.90;;;;;;5104062;28;20038;-67
2022/10/28 09:59:45;;;;;;;16.52;2.75;;;18.50;99.90;;;;;;5103614;28;20027;-67
2022/10/28 10:02:32;;;;;;;11.23;2.20;;;18.50;99.90;;;;;;5120687;28;20036;-67
2022/10/28 10:04:59;;;;;;;8.60;2.05;;;18.50;99.90;;;;;;5103697;28;20039;-67
2022/10/28 10:07:36;;;;;;;8.05;1.70;;;18.50;99.90;;;;;;5094326;28;20028;-68
2022/10/28 10:10:18;;;;;;;10.43;2.50;;;18.40;99.90;;;;;;5068512;28;20050;-68
2022/10/28 10:12:46;;;;;;;5.82;2.10;;;18.40;99.90;;;;;;5088962;28;20101;-68
2022/10/28 10:15:26;;;;;;;7.47;1.88;;;18.30;99.90;;;;;;5105262;28;20062;-68
2022/10/28 10:17:53;;;;;;;6.00;1.63;;;18.30;99.90;;;;;;5104966;28;20185;-70
2022/10/28 10:20:20;;;;;;;7.88;2.15;;;18.30;99.90;;;;;;5084276;28;20055;-68
2022/10/28 10:22:48;;;;;;;5.22;1.85;;;18.30;99.90;;;;;;5102112;28;20131;-68
2022/10/28 10:25:21;;;;;;;5.88;1.02;;;18.30;99.90;;;;;;5086806;28;20050;-68
2022/10/28 10:28:01;;;;;;;9.02;1.70;;;18.20;99.90;;;;;;5125192;28;20448;-70
2022/10/28 10:30:29;;;;;;;10.18;2.28;;;18.20;99.90;;;;;;5087590;28;20061;-69
2022/10/28 10:32:56;;;;;;;8.40;1.50;;;18.20;99.90;;;;;;5105188;28;20047;-68
2022/10/28 10:35:31;;;;;;;8.82;1.67;;;18.10;99.90;;;;;;5107364;28;20048;-68
2022/10/28 10:37:59;;;;;;;8.98;1.65;;;18.10;99.90;;;;;;5072674;28;20077;-69
2022/10/28 10:40:29;;;;;;;10.57;2.03;;;18.00;99.90;;;;;;5076497;28;20138;-68
2022/10/28 10:43:16;;;;;;;6.60;1.70;;;18.10;99.90;;;;;;5101232;28;20087;-69
2022/10/28 10:46:01;;;;;;;3.78;1.13;;;18.10;99.90;;;;;;5085542;28;20058;-68
2022/10/28 10:48:34;;;;;;;7.75;1.17;;;18.10;99.90;;;;;;5101921;28;20130;-68
2022/10/28 10:51:16;;;;;;;4.90;1.23;;;18.10;99.90;;;;;;5081442;28;20060;-69
2022/10/28 10:53:47;;;;;;;7.53;1.67;;;18.10;99.90;;;;;;5097135;28;20107;-69
2022/10/28 10:56:14;;;;;;;7.07;1.48;;;18.10;99.90;;;;;;5078086;28;20058;-69
2022/10/28 10:58:47;;;;;;;9.40;2.08;;;18.10;99.90;;;;;;5062320;28;20055;-69
2022/10/28 11:01:18;;;;;;;11.70;1.95;;;18.20;99.90;;;;;;5061667;28;20144;-69
2022/10/28 11:03:52;;;;;;;6.15;1.25;;;18.30;99.90;;;;;;5076018;28;20075;-68
2022/10/28 11:06:22;;;;;;;7.93;1.83;;;18.40;99.90;;;;;;5075171;28;20055;-68
2022/10/28 11:08:57;;;;;;;9.15;2.80;;;18.50;99.90;;;;;;5075536;28;20052;-69
2022/10/28 11:11:38;;;;;;;12.50;1.75;;;18.60;99.90;;;;;;5046620;28;20051;-69
2022/10/28 11:14:13;;;;;;;7.47;1.52;;;18.60;99.90;;;;;;5091568;28;20097;-69
2022/10/28 11:16:56;;;;;;;5.93;1.45;;;18.60;99.90;;;;;;5093966;28;20051;-68
2022/10/28 11:19:36;;;;;;;10.13;1.90;;;18.60;99.90;;;;;;5096227;28;20111;-68
2022/10/28 11:22:10;;;;;;;10.82;1.98;;;18.70;99.90;;;;;;5063036;28;20130;-69
2022/10/28 11:24:59;;;;;;;5.85;1.48;;;18.60;99.90;;;;;;5059061;28;20056;-68
2022/10/28 11:27:45;;;;;;;13.35;2.33;;;18.60;99.90;;;;;;5078032;28;20135;-68
2022/10/28 11:30:21;;;;;;;10.07;1.70;;;18.60;99.90;;;;;;5077090;28;20608;-68
2022/10/28 11:33:08;;;;;;;13.85;2.72;;;18.50;99.90;;;;;;5058955;28;20058;-68
2022/10/28 11:36:15;;;;;;;8.35;2.22;;;18.50;99.90;;;;;;5080133;28;20056;-68
2022/10/28 11:39:11;;;;;;;11.18;1.65;;;18.40;99.90;;;;;;5094659;28;20101;-68
2022/10/28 11:41:43;;;;;;;11.75;1.50;;;18.30;99.90;;;;;;5082827;28;20067;-68
2022/10/28 11:44:38;;;;;;;11.00;2.40;;;18.30;99.90;;;;;;5108071;28;20063;-68
2022/10/28 11:47:10;;;;;;;7.07;1.85;;;18.30;99.90;;;;;;5094216;28;20119;-70
2022/10/28 11:49:58;;;;;;;10.00;1.92;;;18.30;99.90;;;;;;5097339;28;20075;-70
2022/10/28 11:52:40;;;;;;;9.50;2.45;;;18.20;99.90;;;;;;5098990;28;20055;-70
2022/10/28 11:55:40;;;;;;;10.55;2.35;;;18.20;99.90;;;;;;5116373;28;20054;-69
2022/10/28 11:58:42;;;;;;;12.57;2.30;;;18.20;99.90;;;;;;5101950;28;20112;-69
2022/10/28 12:01:42;;;;;;;11.50;3.22;;;18.20;99.90;;;;;;5065114;28;20051;-69
2022/10/28 12:04:18;;;;;;;8.68;1.40;;;18.20;99.90;;;;;;5082578;28;20052;-69
2022/10/28 12:07:08;;;;;;;12.65;2.53;;;18.30;99.90;;;;;;5115636;28;20044;-69
2022/10/28 12:09:52;;;;;;;11.13;2.35;;;18.20;99.90;;;;;;5096248;28;20044;-68
2022/10/28 12:12:35;;;;;;;10.52;1.73;;;18.30;99.90;;;;;;5088722;28;20111;-69
2022/10/28 12:15:10;;;;;;;7.72;1.75;;;18.40;99.90;;;;;;5111293;28;20054;-70
2022/10/28 12:17:59;;;;;;;4.82;1.30;;;18.50;99.90;;;;;;5112034;28;20086;-69
2022/10/28 12:20:32;;;;;;;8.00;2.40;;;18.50;99.90;;;;;;5079922;28;20062;-70
2022/10/28 12:23:02;;;;;;;7.25;1.63;;;18.60;99.90;;;;;;5096162;28;20076;-70
2022/10/28 12:25:31;;;;;;;12.18;2.03;;;18.70;99.90;;;;;;5114287;28;20115;-70
2022/10/28 12:28:00;;;;;;;15.45;3.03;;;18.80;99.90;;;;;;5079776;28;20046;-69
2022/10/28 12:30:32;;;;;;;17.25;2.38;;;18.80;99.90;;;;;;5083064;28;20047;-69
2022/10/28 12:33:04;;;;;;;18.98;6.43;;;18.80;99.90;;;;;;5075913;28;20474;-70
2022/10/28 12:35:33;;;;;;;8.63;2.30;;;18.90;99.90;;;;;;5094324;28;20147;-69
2022/10/28 12:38:33;;;;;;;8.20;2.50;;;19.00;99.90;;;;;;5075516;28;20052;-69
2022/10/28 12:41:26;;;;;;;8.57;2.15;;;19.00;99.90;;;;;;5079416;28;20116;-67
2022/10/28 12:44:00;;;;;;;9.57;2.30;;;19.00;99.90;;;;;;5061925;28;20084;-68
2022/10/28 12:46:37;;;;;;;;;;;19.00;99.90;;;;;;5086342;28;20127;-66
2022/10/28 12:49:18;;;;;;;11.48;1.95;;;19.00;99.90;;;;;;5082976;28;19927;-68
2022/10/28 12:51:45;;;;;;;8.70;1.90;;;19.00;99.90;;;;;;5066932;28;20062;-68
2022/10/28 12:54:45;;;;;;;9.80;1.77;;;19.00;99.90;;;;;;5085525;28;20146;-69
2022/10/28 12:57:19;;;;;;;7.55;1.67;;;19.10;99.90;;;;;;5086664;28;20038;-69
2022/10/28 13:00:03;;;;;;;12.75;2.95;;;19.20;99.90;;;;;;5067671;28;20044;-68
2022/10/28 13:02:38;;;;;;;9.02;2.55;;;19.10;99.90;;;;;;5055121;28;20052;-70
2022/10/28 13:05:05;;;;;;;8.02;2.35;;;19.20;99.90;;;;;;5069200;28;20048;-69